Search for airport 
image banner adimage banner adimage banner ad
image banner ad

3PN0 - Schulteis

Located in Biglerville, United States

ICAO - 3PN0, IATA -

Data provided by Airmate  

General information

Coordinates: N39°57'37" W77°15'33"
Elevation is 680 feet MSL.
Magnetic variation is -10° East
View others Airports in Pennsylvania

Operational data

Special qualification required
Current time UTC:
Current local time:
Weather at : KTHV - York ( 33 km )
METAR: KTHV 091353Z AUTO 00000KT 10SM OVC095 09/02 A3008 RMK AO2 SLP191 T00940017
View NOTAMs / SUP AIP / TFR affecting this airport [VIEW]
Communications frequencies: [VIEW]

Runways:

RWY identifierQFULength (ft)Width (ft)SurfaceLDA (ft)
081500100GRASS
261500100GRASS

Airport contact information

Address: Biglerville United States

Satellite view of 3PN0